Time;durP1;ratioP1;P1;durP2;ratioP2;P2;SDS_P1;SDS_P2;PMS_P1;PMS_P2;Temp;Humidity;BMP_temperature;BMP_pressure;BME280_temperature;BME280_humidity;BME280_pressure;Samples;Min_cycle;Max_cycle;Signal;HPM_P1;HPM_P2
2023/06/18 00:01:26;;;;;;;17.20;10.97;;;16.40;99.90;;;;;;5116659;27;20399;-72
2023/06/18 00:03:52;;;;;;;20.23;11.20;;;16.40;99.90;;;;;;5134135;27;20035;-72
2023/06/18 00:06:18;;;;;;;19.75;11.57;;;16.40;99.90;;;;;;5099846;27;20402;-73
2023/06/18 00:08:44;;;;;;;19.00;10.60;;;16.40;99.90;;;;;;5099153;27;20050;-73
2023/06/18 00:11:10;;;;;;;21.80;11.10;;;16.40;99.90;;;;;;5134676;27;20043;-73
2023/06/18 00:13:35;;;;;;;17.98;11.48;;;16.30;99.90;;;;;;5115920;27;20394;-73
2023/06/18 00:16:01;;;;;;;18.57;11.67;;;16.40;99.90;;;;;;5098968;27;20038;-73
2023/06/18 00:18:27;;;;;;;20.13;12.40;;;16.40;99.90;;;;;;5099226;27;20101;-73
2023/06/18 00:20:53;;;;;;;23.27;12.13;;;16.40;99.90;;;;;;5116056;27;20088;-73
2023/06/18 00:23:19;;;;;;;21.50;13.25;;;16.40;99.90;;;;;;5116137;27;20039;-74
2023/06/18 00:25:44;;;;;;;20.98;12.90;;;16.40;99.90;;;;;;5133880;27;20088;-73
2023/06/18 00:28:10;;;;;;;20.95;13.38;;;16.40;99.90;;;;;;5116072;27;20129;-72
2023/06/18 00:30:36;;;;;;;20.97;13.27;;;16.30;99.90;;;;;;5116350;27;20039;-74
2023/06/18 00:33:03;;;;;;;24.15;13.38;;;16.30;99.90;;;;;;5135610;27;20091;-73
2023/06/18 00:35:30;;;;;;;20.63;12.77;;;16.30;99.90;;;;;;5116327;27;20055;-73
2023/06/18 00:37:55;;;;;;;21.77;12.98;;;16.20;99.90;;;;;;5134169;27;20047;-72
2023/06/18 00:40:21;;;;;;;23.80;13.77;;;16.20;99.90;;;;;;5099185;27;20043;-73
2023/06/18 00:42:48;;;;;;;26.02;14.18;;;16.20;99.90;;;;;;5133868;27;20502;-74
2023/06/18 00:45:14;;;;;;;25.50;14.15;;;16.20;99.90;;;;;;5115987;27;20082;-73
2023/06/18 00:47:42;;;;;;;26.02;13.93;;;16.10;99.90;;;;;;5098968;27;20047;-73
2023/06/18 00:50:12;;;;;;;27.10;14.63;;;16.10;99.90;;;;;;5115894;27;20047;-73
2023/06/18 00:52:44;;;;;;;24.30;13.93;;;16.10;99.90;;;;;;5134063;27;20207;-72
2023/06/18 00:55:12;;;;;;;22.15;13.23;;;16.10;99.90;;;;;;5116077;27;20039;-71
2023/06/18 00:57:38;;;;;;;24.60;14.13;;;16.00;99.90;;;;;;5098764;28;20047;-73
2023/06/18 01:00:11;;;;;;;23.95;15.00;;;16.00;99.90;;;;;;5098554;27;20063;-73
2023/06/18 01:02:37;;;;;;;26.35;15.07;;;16.00;99.90;;;;;;5116501;27;20082;-74
2023/06/18 01:05:04;;;;;;;28.15;15.50;;;16.00;99.90;;;;;;5115073;28;20078;-73
2023/06/18 01:07:30;;;;;;;26.13;14.70;;;15.90;99.90;;;;;;5115973;28;20055;-73
2023/06/18 01:09:56;;;;;;;23.90;14.40;;;15.90;99.90;;;;;;5133929;28;20043;-73
2023/06/18 01:12:27;;;;;;;25.25;15.30;;;15.90;99.90;;;;;;5098573;28;20498;-73
2023/06/18 01:14:57;;;;;;;28.42;15.93;;;15.80;99.90;;;;;;5133569;28;20099;-74
2023/06/18 01:17:29;;;;;;;27.27;16.17;;;15.80;99.90;;;;;;5098724;28;20077;-72
2023/06/18 01:20:10;;;;;;;26.00;15.48;;;15.80;99.90;;;;;;5133311;28;20135;-72
2023/06/18 01:23:06;;;;;;;28.05;16.25;;;15.80;99.90;;;;;;5115254;28;20122;-73
2023/06/18 01:25:32;;;;;;;28.80;15.35;;;15.70;99.90;;;;;;5098751;28;20146;-72
2023/06/18 01:28:07;;;;;;;27.63;15.68;;;15.70;99.90;;;;;;5098324;28;20051;-73
2023/06/18 01:30:36;;;;;;;29.52;16.05;;;15.70;99.90;;;;;;5098815;28;20047;-73
2023/06/18 01:33:09;;;;;;;30.05;16.23;;;15.70;99.90;;;;;;5097717;28;20043;-74
2023/06/18 01:35:35;;;;;;;28.38;16.50;;;15.60;99.90;;;;;;5115022;28;20059;-72
2023/06/18 01:38:24;;;;;;;28.85;16.15;;;15.60;99.90;;;;;;5132806;28;20035;-72
2023/06/18 01:41:00;;;;;;;30.15;15.90;;;15.50;99.90;;;;;;5098188;28;20074;-75
2023/06/18 01:43:38;;;;;;;30.30;17.38;;;15.50;99.90;;;;;;5098238;28;20043;-73
2023/06/18 01:46:06;;;;;;;28.42;17.42;;;15.40;99.90;;;;;;5114923;28;20085;-72
2023/06/18 01:48:39;;;;;;;29.38;17.58;;;15.40;99.90;;;;;;5133630;28;20070;-73
2023/06/18 01:51:06;;;;;;;33.13;18.27;;;15.40;99.90;;;;;;5115969;28;20062;-72
2023/06/18 01:53:32;;;;;;;;;;;15.40;99.90;;;;;;5099881;28;20173;-73
2023/06/18 01:55:59;;;;;;;33.53;17.60;;;15.30;99.90;;;;;;5132915;28;19928;-73
2023/06/18 01:58:26;;;;;;;32.42;17.48;;;15.30;99.90;;;;;;5114623;28;20055;-72
2023/06/18 02:00:52;;;;;;;35.40;18.30;;;15.20;99.90;;;;;;5115118;28;20108;-72
2023/06/18 02:03:19;;;;;;;35.75;17.75;;;15.20;99.90;;;;;;5097984;28;20086;-72
2023/06/18 02:05:45;;;;;;;30.50;17.38;;;15.10;99.90;;;;;;5133262;28;20047;-73
2023/06/18 02:08:10;;;;;;;33.57;17.30;;;15.20;99.90;;;;;;5097807;28;20096;-73
2023/06/18 02:10:36;;;;;;;33.20;18.65;;;15.10;99.90;;;;;;5081248;28;20047;-73
2023/06/18 02:13:02;;;;;;;31.92;18.45;;;15.10;99.90;;;;;;5115099;27;20514;-72
2023/06/18 02:15:28;;;;;;;35.03;18.73;;;15.20;99.90;;;;;;5101432;27;20047;-72
2023/06/18 02:17:54;;;;;;;33.33;18.45;;;15.20;99.90;;;;;;5119106;27;20047;-72
2023/06/18 02:20:20;;;;;;;30.60;18.38;;;15.10;99.90;;;;;;5118979;27;20059;-73
2023/06/18 02:22:46;;;;;;;31.60;17.88;;;15.10;99.90;;;;;;5068204;27;20053;-72
2023/06/18 02:25:12;;;;;;;34.15;19.02;;;15.20;99.90;;;;;;5101238;27;20050;-72
2023/06/18 02:27:38;;;;;;;35.17;18.52;;;15.10;99.90;;;;;;5101296;27;20051;-72
2023/06/18 02:30:04;;;;;;;32.65;17.77;;;15.10;99.90;;;;;;5101025;27;20043;-72
2023/06/18 02:32:31;;;;;;;34.00;18.52;;;15.10;99.90;;;;;;5118183;27;20096;-72
2023/06/18 02:34:58;;;;;;;31.52;18.00;;;15.10;99.90;;;;;;5084605;27;20048;-73
2023/06/18 02:37:23;;;;;;;33.20;18.45;;;15.10;99.90;;;;;;5084712;27;20399;-72
2023/06/18 02:39:49;;;;;;;32.58;18.00;;;15.10;99.90;;;;;;5136473;27;20053;-73
2023/06/18 02:42:20;;;;;;;32.42;17.42;;;15.10;99.90;;;;;;5083663;27;20039;-71
2023/06/18 02:44:46;;;;;;;33.45;18.23;;;15.10;99.90;;;;;;5085190;27;20047;-72
2023/06/18 02:47:12;;;;;;;37.33;19.73;;;15.10;99.90;;;;;;5117262;27;20043;-73
2023/06/18 02:49:38;;;;;;;37.10;19.50;;;15.10;99.90;;;;;;5136501;27;20043;-72
2023/06/18 02:52:05;;;;;;;35.78;19.67;;;15.10;99.90;;;;;;5117662;27;20341;-71
2023/06/18 02:54:30;;;;;;;34.50;19.92;;;15.10;99.90;;;;;;5117649;27;20112;-71
2023/06/18 02:56:56;;;;;;;31.63;18.33;;;15.10;99.90;;;;;;5117842;27;20478;-71
2023/06/18 02:59:22;;;;;;;39.42;19.00;;;15.10;99.90;;;;;;5114337;28;20054;-72
2023/06/18 03:01:48;;;;;;;33.15;18.63;;;15.10;99.90;;;;;;5114629;28;20047;-71
2023/06/18 03:04:14;;;;;;;35.25;20.25;;;15.10;99.90;;;;;;5114799;28;20134;-72
2023/06/18 03:06:40;;;;;;;35.92;19.38;;;15.10;99.90;;;;;;5114230;28;20039;-71
2023/06/18 03:09:06;;;;;;;37.15;19.35;;;15.00;99.90;;;;;;5115007;28;20048;-72
2023/06/18 03:11:32;;;;;;;36.85;19.48;;;15.00;99.90;;;;;;5115431;28;20058;-72
2023/06/18 03:13:57;;;;;;;35.85;20.55;;;15.00;99.90;;;;;;5115358;28;20043;-72
2023/06/18 03:16:23;;;;;;;36.60;19.48;;;15.00;99.90;;;;;;5096862;28;20080;-71
2023/06/18 03:18:50;;;;;;;35.03;19.27;;;15.00;99.90;;;;;;5080546;28;20055;-73
2023/06/18 03:21:15;;;;;;;32.70;20.05;;;15.00;99.90;;;;;;5114442;28;20380;-72
2023/06/18 03:23:43;;;;;;;34.95;18.92;;;15.00;99.90;;;;;;5113341;28;20047;-72
2023/06/18 03:26:09;;;;;;;33.33;19.08;;;15.00;99.90;;;;;;5113570;28;20057;-74
2023/06/18 03:28:36;;;;;;;35.75;18.35;;;15.00;99.90;;;;;;5097312;28;20043;-72
2023/06/18 03:31:02;;;;;;;32.42;18.23;;;15.10;99.90;;;;;;5096887;28;20471;-73
2023/06/18 03:33:31;;;;;;;37.42;19.27;;;15.10;99.90;;;;;;5096530;28;20058;-73
2023/06/18 03:36:00;;;;;;;37.17;19.60;;;15.10;99.90;;;;;;5096064;28;20047;-73
2023/06/18 03:38:29;;;;;;;34.92;17.80;;;15.20;99.90;;;;;;5111945;28;20048;-74
2023/06/18 03:40:55;;;;;;;33.95;18.98;;;15.30;99.90;;;;;;5080184;28;20066;-72
2023/06/18 03:43:21;;;;;;;35.38;19.30;;;15.30;99.90;;;;;;5114211;28;20042;-73
2023/06/18 03:45:47;;;;;;;33.38;18.35;;;15.40;99.90;;;;;;5096637;28;20040;-74
2023/06/18 03:48:13;;;;;;;35.67;19.05;;;15.50;99.90;;;;;;5114522;28;20479;-72
2023/06/18 03:50:39;;;;;;;35.15;19.23;;;15.60;99.90;;;;;;5097237;28;20075;-72
2023/06/18 03:53:05;;;;;;;34.67;18.98;;;15.60;99.90;;;;;;5113721;28;20049;-72
2023/06/18 03:55:31;;;;;;;35.75;19.38;;;15.70;99.90;;;;;;5118223;28;20481;-72
2023/06/18 03:57:56;;;;;;;32.92;18.58;;;15.70;99.90;;;;;;5119391;28;20063;-72
2023/06/18 04:00:22;;;;;;;32.97;19.02;;;15.80;99.90;;;;;;5116896;28;20043;-72
2023/06/18 04:02:48;;;;;;;34.00;18.60;;;15.90;99.90;;;;;;5083766;28;20043;-73
2023/06/18 04:05:14;;;;;;;35.70;19.02;;;15.90;99.90;;;;;;5100699;28;20043;-72
2023/06/18 04:07:39;;;;;;;33.65;19.48;;;16.00;99.90;;;;;;5118022;28;20100;-72
2023/06/18 04:10:05;;;;;;;33.50;19.07;;;16.00;99.90;;;;;;5116389;28;20116;-73
2023/06/18 04:12:31;;;;;;;32.50;19.00;;;16.00;99.90;;;;;;5114637;28;20403;-71
2023/06/18 04:14:57;;;;;;;36.58;19.10;;;16.10;99.90;;;;;;5114157;28;20298;-72
2023/06/18 04:17:26;;;;;;;36.08;19.33;;;16.10;99.90;;;;;;5115175;28;20050;-73
2023/06/18 04:19:51;;;;;;;34.85;19.13;;;16.10;99.90;;;;;;5114595;28;20046;-71
2023/06/18 04:22:17;;;;;;;36.45;19.33;;;16.10;99.90;;;;;;5116013;28;20051;-72
2023/06/18 04:24:43;;;;;;;32.53;19.65;;;16.20;99.90;;;;;;5116189;28;20048;-70
2023/06/18 04:27:09;;;;;;;35.63;20.00;;;16.20;99.90;;;;;;5118759;28;20044;-72
2023/06/18 04:29:35;;;;;;;35.38;19.77;;;16.30;99.90;;;;;;5118800;28;20448;-72
2023/06/18 04:32:01;;;;;;;36.00;19.48;;;16.30;99.90;;;;;;5117249;28;20077;-71
2023/06/18 04:34:27;;;;;;;39.25;19.98;;;16.30;99.90;;;;;;5116295;28;20078;-71
2023/06/18 04:36:52;;;;;;;34.75;19.33;;;16.30;99.90;;;;;;5095927;28;20039;-71
2023/06/18 04:39:18;;;;;;;37.67;20.52;;;16.30;99.90;;;;;;5079164;28;20394;-72
2023/06/18 04:41:44;;;;;;;35.17;20.20;;;16.30;99.90;;;;;;5112097;28;20043;-72
2023/06/18 04:44:12;;;;;;;35.17;20.17;;;16.30;99.90;;;;;;5112322;28;20096;-73
2023/06/18 04:46:40;;;;;;;36.67;19.83;;;16.30;99.90;;;;;;5111840;28;20051;-72
2023/06/18 04:49:05;;;;;;;;;;;16.40;99.90;;;;;;5112835;28;20380;-72
2023/06/18 04:51:31;;;;;;;39.70;19.83;;;16.40;99.90;;;;;;5113033;28;19926;-72
2023/06/18 04:53:57;;;;;;;37.22;19.80;;;16.50;99.90;;;;;;5095770;28;20090;-72
2023/06/18 04:56:23;;;;;;;39.55;20.55;;;16.50;99.90;;;;;;5111975;28;20395;-72
2023/06/18 04:58:48;;;;;;;39.30;21.13;;;16.50;99.90;;;;;;5078104;28;20094;-71
2023/06/18 05:01:14;;;;;;;37.28;20.77;;;16.60;99.90;;;;;;5094980;28;20047;-72
2023/06/18 05:03:40;;;;;;;38.58;21.05;;;16.70;99.90;;;;;;5112684;28;20040;-72
2023/06/18 05:06:06;;;;;;;36.80;20.53;;;16.70;99.90;;;;;;5113151;28;20040;-72
2023/06/18 05:08:32;;;;;;;36.53;20.90;;;16.80;99.90;;;;;;5112123;28;20070;-72
2023/06/18 05:10:57;;;;;;;37.63;20.70;;;16.90;99.90;;;;;;5112295;28;20043;-70
2023/06/18 05:13:26;;;;;;;38.00;19.48;;;17.00;99.90;;;;;;5094237;28;20096;-72
2023/06/18 05:15:52;;;;;;;37.80;20.77;;;17.00;99.90;;;;;;5094267;28;20483;-72
2023/06/18 05:18:18;;;;;;;37.15;20.05;;;17.10;99.90;;;;;;5094828;28;20135;-74
2023/06/18 05:20:45;;;;;;;34.95;19.92;;;17.20;99.90;;;;;;5111803;28;20165;-71
2023/06/18 05:23:11;;;;;;;36.50;21.35;;;17.20;99.90;;;;;;5095066;28;20040;-71
2023/06/18 05:25:37;;;;;;;36.75;19.95;;;17.30;99.90;;;;;;5111463;28;20130;-72
2023/06/18 05:28:04;;;;;;;36.50;20.52;;;17.40;99.90;;;;;;5113108;28;20181;-71
2023/06/18 05:30:30;;;;;;;42.65;20.70;;;17.50;99.90;;;;;;5111673;28;20520;-71
2023/06/18 05:32:56;;;;;;;34.53;20.67;;;17.60;99.90;;;;;;5078274;28;20121;-71
2023/06/18 05:35:22;;;;;;;34.30;20.00;;;17.80;99.90;;;;;;5094478;28;20044;-72
2023/06/18 05:37:49;;;;;;;37.75;20.17;;;18.00;99.90;;;;;;5112908;28;20051;-72
2023/06/18 05:40:14;;;;;;;36.40;20.55;;;18.10;99.90;;;;;;5111741;28;20063;-72
2023/06/18 05:42:40;;;;;;;33.83;19.20;;;18.20;99.90;;;;;;5111177;28;20404;-72
2023/06/18 05:45:07;;;;;;;34.67;20.87;;;18.30;99.90;;;;;;5110773;28;20043;-73
2023/06/18 05:47:32;;;;;;;33.80;18.95;;;18.40;99.90;;;;;;5112309;28;20082;-72
2023/06/18 05:49:58;;;;;;;33.13;19.80;;;18.50;99.90;;;;;;5098646;28;20078;-70
2023/06/18 05:52:24;;;;;;;38.77;19.90;;;18.60;99.90;;;;;;5098537;28;20044;-73
2023/06/18 05:54:50;;;;;;;34.57;19.63;;;18.70;99.90;;;;;;5098378;28;20051;-72
2023/06/18 05:57:16;;;;;;;32.07;18.97;;;18.70;99.90;;;;;;5116483;28;20044;-71
2023/06/18 05:59:41;;;;;;;32.07;19.60;;;18.70;99.90;;;;;;5098068;28;20056;-72
2023/06/18 06:02:08;;;;;;;34.23;19.63;;;18.80;99.90;;;;;;5115246;28;20097;-72
2023/06/18 06:04:33;;;;;;;33.63;19.33;;;18.90;99.90;;;;;;5114928;28;20058;-72
2023/06/18 06:06:59;;;;;;;34.10;19.57;;;19.00;99.90;;;;;;5098512;28;20043;-72
2023/06/18 06:09:25;;;;;;;34.13;20.17;;;19.10;99.90;;;;;;5114275;28;20040;-73
2023/06/18 06:11:52;;;;;;;34.43;20.20;;;19.20;99.90;;;;;;5107169;28;20492;-72
2023/06/18 06:14:18;;;;;;;30.98;19.67;;;19.30;99.90;;;;;;5093763;28;20094;-72
2023/06/18 06:16:43;;;;;;;33.60;18.87;;;19.50;99.90;;;;;;5094533;28;20080;-72
2023/06/18 06:19:09;;;;;;;31.57;18.83;;;19.60;99.90;;;;;;5095875;28;20044;-71
2023/06/18 06:21:35;;;;;;;34.97;19.87;;;19.80;99.90;;;;;;5096980;28;20055;-72
2023/06/18 06:24:01;;;;;;;33.57;19.23;;;20.00;99.90;;;;;;5095631;28;20400;-70
2023/06/18 06:26:27;;;;;;;33.05;18.67;;;20.10;99.90;;;;;;5094263;28;20048;-75
2023/06/18 06:28:53;;;;;;;30.52;18.67;;;20.20;99.90;;;;;;5109313;28;20040;-72
2023/06/18 06:31:18;;;;;;;32.30;18.93;;;20.20;99.90;;;;;;5114627;28;20047;-73
2023/06/18 06:33:44;;;;;;;33.77;20.10;;;20.30;99.90;;;;;;5114628;28;20072;-72
2023/06/18 06:36:10;;;;;;;34.03;19.97;;;20.40;99.90;;;;;;5115928;28;20051;-72
2023/06/18 06:38:36;;;;;;;34.63;19.10;;;20.50;99.90;;;;;;5114430;28;20130;-70
2023/06/18 06:41:01;;;;;;;31.90;19.17;;;20.50;99.90;;;;;;5114574;28;20044;-71
2023/06/18 06:43:27;;;;;;;33.53;19.33;;;20.60;99.90;;;;;;5097492;28;20050;-72
2023/06/18 06:45:53;;;;;;;36.67;18.43;;;20.60;99.90;;;;;;5114169;28;20494;-75
2023/06/18 06:48:19;;;;;;;29.43;18.80;;;20.60;99.90;;;;;;5115362;28;20048;-73
2023/06/18 06:50:45;;;;;;;29.17;18.37;;;20.80;99.90;;;;;;5113806;28;20078;-71
2023/06/18 06:53:10;;;;;;;33.47;18.70;;;20.80;99.90;;;;;;5115630;28;20035;-72
2023/06/18 06:55:36;;;;;;;30.37;17.77;;;21.00;99.90;;;;;;5115496;27;20293;-73
2023/06/18 06:58:02;;;;;;;29.10;18.17;;;21.20;99.90;;;;;;5080127;28;20051;-73
2023/06/18 07:00:28;;;;;;;28.20;17.67;;;21.20;99.90;;;;;;5114822;28;20229;-73
2023/06/18 07:02:53;;;;;;;37.80;18.43;;;21.20;99.90;;;;;;5114520;28;20040;-72
2023/06/18 07:05:19;;;;;;;28.50;18.57;;;21.30;99.90;;;;;;5097414;28;20380;-73
2023/06/18 07:07:45;;;;;;;25.37;17.30;;;21.20;99.90;;;;;;5115041;28;20047;-72
2023/06/18 07:10:11;;;;;;;34.33;17.67;;;21.20;99.90;;;;;;5097074;28;20285;-71
2023/06/18 07:12:36;;;;;;;27.83;17.60;;;21.20;99.90;;;;;;5101445;28;20036;-73
2023/06/18 07:15:02;;;;;;;30.23;16.27;;;21.20;99.90;;;;;;5094785;28;20412;-72
2023/06/18 07:17:28;;;;;;;33.17;17.60;;;21.20;99.90;;;;;;5094538;28;20132;-73
2023/06/18 07:19:55;;;;;;;27.00;17.07;;;21.30;99.90;;;;;;5109032;28;20063;-73
2023/06/18 07:22:21;;;;;;;30.27;17.65;;;21.40;99.90;;;;;;5114989;28;20048;-73
2023/06/18 07:24:47;;;;;;;27.50;16.90;;;21.50;99.90;;;;;;5096469;28;20089;-72
2023/06/18 07:27:13;;;;;;;31.27;16.90;;;21.60;99.90;;;;;;5095054;28;20044;-72
2023/06/18 07:29:38;;;;;;;26.13;17.33;;;21.70;99.90;;;;;;5113374;28;20095;-72
2023/06/18 07:32:04;;;;;;;27.63;16.60;;;21.80;99.90;;;;;;5096414;28;20101;-72
2023/06/18 07:34:30;;;;;;;27.60;16.80;;;21.90;99.90;;;;;;5115034;28;20468;-72
2023/06/18 07:36:56;;;;;;;26.13;16.60;;;22.00;99.90;;;;;;5113437;28;20125;-72
2023/06/18 07:39:22;;;;;;;25.57;16.30;;;22.10;99.90;;;;;;5113716;28;20051;-71
2023/06/18 07:41:49;;;;;;;29.27;16.47;;;22.20;99.90;;;;;;5112933;28;20043;-74
2023/06/18 07:44:15;;;;;;;25.65;16.23;;;22.30;99.90;;;;;;5113515;28;20079;-72
2023/06/18 07:46:42;;;;;;;25.83;15.60;;;22.40;99.90;;;;;;5112734;28;20086;-72
2023/06/18 07:49:09;;;;;;;24.83;15.15;;;22.50;99.90;;;;;;5096414;28;20130;-73
2023/06/18 07:51:35;;;;;;;;;;;22.60;99.90;;;;;;5114753;28;20070;-72
2023/06/18 07:54:01;;;;;;;31.23;16.60;;;22.70;99.90;;;;;;5113728;28;19927;-73
2023/06/18 07:56:26;;;;;;;25.43;15.77;;;22.80;99.90;;;;;;5114202;28;20036;-72
2023/06/18 07:58:53;;;;;;;24.43;14.83;;;22.90;99.90;;;;;;5112407;28;20289;-72
2023/06/18 08:01:19;;;;;;;22.02;14.85;;;23.00;99.90;;;;;;5112988;28;20051;-72
2023/06/18 08:03:45;;;;;;;24.55;15.73;;;23.20;99.90;;;;;;5112597;28;20044;-71
2023/06/18 08:06:11;;;;;;;22.00;14.30;;;23.30;99.90;;;;;;5114208;28;20403;-71
2023/06/18 08:08:36;;;;;;;20.80;13.52;;;23.50;99.90;;;;;;5096115;28;20090;-72
2023/06/18 08:11:02;;;;;;;22.87;13.33;;;23.60;99.90;;;;;;5095249;28;20130;-72
2023/06/18 08:13:29;;;;;;;22.70;13.50;;;23.90;99.90;;;;;;5113852;28;20039;-74
2023/06/18 08:15:54;;;;;;;;;;;24.10;99.90;;;;;;5113124;28;20082;-72
2023/06/18 08:18:20;;;;;;;25.10;12.73;;;24.30;99.90;;;;;;5111191;28;20399;-72
2023/06/18 08:20:46;;;;;;;18.57;12.40;;;24.40;99.90;;;;;;5112515;28;20130;-73
2023/06/18 08:23:11;;;;;;;22.67;13.30;;;24.60;99.90;;;;;;5112411;28;20043;-73
2023/06/18 08:25:37;;;;;;;21.27;13.07;;;24.90;99.90;;;;;;5112694;28;20496;-73
2023/06/18 08:28:03;;;;;;;18.73;13.30;;;25.00;99.90;;;;;;5111572;28;20055;-73
2023/06/18 08:30:29;;;;;;;17.67;11.07;;;25.20;99.90;;;;;;5113509;28;20039;-72
2023/06/18 08:32:57;;;;;;;15.93;10.87;;;25.30;99.90;;;;;;5116485;28;20044;-73
2023/06/18 08:35:22;;;;;;;16.42;10.70;;;25.40;99.90;;;;;;5114870;28;20092;-72
2023/06/18 08:37:48;;;;;;;15.53;10.20;;;25.50;99.90;;;;;;5113358;28;20495;-72
2023/06/18 08:40:14;;;;;;;18.13;10.30;;;25.40;99.90;;;;;;5112537;28;20051;-73
2023/06/18 08:42:40;;;;;;;16.88;10.48;;;25.50;99.90;;;;;;5113538;28;20043;-71
2023/06/18 08:45:07;;;;;;;13.95;9.90;;;25.60;99.90;;;;;;5113199;28;20055;-74
2023/06/18 08:47:33;;;;;;;;;;;25.70;99.90;;;;;;5113655;28;20047;-73
2023/06/18 08:50:00;;;;;;;17.80;9.75;;;25.70;99.90;;;;;;5112989;28;19970;-72
2023/06/18 08:52:30;;;;;;;15.43;9.63;;;25.90;99.90;;;;;;5113225;28;20373;-73
2023/06/18 08:55:03;;;;;;;14.60;9.43;;;25.90;99.90;;;;;;5112857;28;20055;-72
2023/06/18 08:57:39;;;;;;;13.77;8.68;;;26.10;99.90;;;;;;5111854;28;20122;-74
2023/06/18 09:00:08;;;;;;;11.98;7.72;;;26.10;99.90;;;;;;5095143;28;20043;-73
2023/06/18 09:02:34;;;;;;;14.20;7.80;;;26.20;99.90;;;;;;5112389;28;20039;-72
2023/06/18 09:05:05;;;;;;;14.20;7.50;;;26.30;99.90;;;;;;5112413;28;20039;-73
2023/06/18 09:07:31;;;;;;;14.02;8.18;;;26.40;99.90;;;;;;5113177;28;20043;-73
2023/06/18 09:09:57;;;;;;;12.13;8.23;;;26.40;99.90;;;;;;5112706;28;20047;-73
2023/06/18 09:12:23;;;;;;;11.55;7.78;;;26.40;99.90;;;;;;5094780;28;20154;-74
2023/06/18 09:14:49;;;;;;;11.85;7.63;;;26.50;99.90;;;;;;5112045;28;20395;-75
2023/06/18 09:17:16;;;;;;;13.73;8.27;;;26.60;99.90;;;;;;5111457;28;20070;-74
2023/06/18 09:19:43;;;;;;;14.15;7.45;;;26.60;99.90;;;;;;5091144;28;20132;-74
2023/06/18 09:22:17;;;;;;;9.98;7.18;;;26.80;99.90;;;;;;5093087;28;20052;-74
2023/06/18 09:24:43;;;;;;;13.90;6.65;;;26.90;99.90;;;;;;5095606;28;20055;-74
2023/06/18 09:27:09;;;;;;;;;;;27.10;99.40;;;;;;5097061;28;20048;-71
2023/06/18 09:29:37;;;;;;;10.50;6.22;;;27.30;99.50;;;;;;5097051;28;19927;-74
2023/06/18 09:32:08;;;;;;;12.18;7.00;;;27.50;98.90;;;;;;5095352;28;20322;-72
2023/06/18 09:34:35;;;;;;;9.32;6.30;;;27.70;96.80;;;;;;5099782;28;20056;-74
2023/06/18 09:37:02;;;;;;;;;;;27.80;95.70;;;;;;5100776;28;20048;-73
2023/06/18 09:39:28;;;;;;;11.45;6.18;;;27.90;95.30;;;;;;5099345;28;19929;-74
2023/06/18 09:41:55;;;;;;;11.50;5.97;;;28.00;93.50;;;;;;5098737;28;20103;-73
2023/06/18 09:44:22;;;;;;;10.48;6.00;;;28.30;95.00;;;;;;5099016;28;20437;-73
2023/06/18 09:46:50;;;;;;;9.25;6.45;;;28.40;91.20;;;;;;5116164;28;20112;-74
2023/06/18 09:49:19;;;;;;;11.13;7.00;;;28.30;92.30;;;;;;5116680;28;20399;-74
2023/06/18 09:51:48;;;;;;;11.70;6.32;;;28.50;92.80;;;;;;5116725;28;20104;-72
2023/06/18 09:54:14;;;;;;;10.48;6.70;;;28.60;91.90;;;;;;5116574;28;20115;-73
2023/06/18 09:57:02;;;;;;;9.88;6.72;;;28.50;91.50;;;;;;5116989;28;20126;-73
2023/06/18 09:59:28;;;;;;;12.50;7.13;;;28.50;91.50;;;;;;5115462;28;20457;-73
2023/06/18 10:01:55;;;;;;;10.98;7.30;;;28.50;90.90;;;;;;5116484;28;20555;-72
2023/06/18 10:04:21;;;;;;;;;;;28.50;90.30;;;;;;5115391;28;20484;-74
2023/06/18 10:06:51;;;;;;;;;;;28.40;90.10;;;;;;5117149;28;19924;-73
2023/06/18 10:09:18;;;;;;;10.30;7.25;;;28.40;90.00;;;;;;5115945;27;19923;-76
2023/06/18 10:11:47;;;;;;;11.27;7.30;;;28.30;90.00;;;;;;5115329;28;20048;-74
2023/06/18 10:14:13;;;;;;;13.65;7.38;;;28.30;90.30;;;;;;5116151;28;20039;-74
2023/06/18 10:16:49;;;;;;;13.57;8.00;;;28.30;90.10;;;;;;5116875;28;20051;-73
2023/06/18 10:19:30;;;;;;;10.23;7.55;;;28.40;90.20;;;;;;5116191;27;20051;-74
2023/06/18 10:22:05;;;;;;;14.15;8.02;;;28.40;90.00;;;;;;5098559;28;20108;-75
2023/06/18 10:24:46;;;;;;;16.33;8.20;;;28.60;89.20;;;;;;5116143;28;20394;-72
2023/06/18 10:27:13;;;;;;;12.77;7.70;;;28.70;88.90;;;;;;5115552;28;20083;-73
2023/06/18 10:29:39;;;;;;;13.55;7.65;;;29.00;89.00;;;;;;5115250;28;20047;-74
2023/06/18 10:32:05;;;;;;;11.18;7.05;;;29.20;88.60;;;;;;5098090;28;20050;-73
2023/06/18 10:34:32;;;;;;;10.32;6.50;;;29.40;84.60;;;;;;5080910;28;20513;-73
2023/06/18 10:36:59;;;;;;;9.00;5.88;;;29.40;83.30;;;;;;5113135;28;20047;-75
2023/06/18 10:39:26;;;;;;;13.57;6.57;;;29.50;82.90;;;;;;5115892;28;20411;-73
2023/06/18 10:41:52;;;;;;;11.98;6.60;;;29.50;82.20;;;;;;5115649;28;20051;-74
2023/06/18 10:44:55;;;;;;;11.20;6.28;;;29.60;81.80;;;;;;5115590;28;20104;-72
2023/06/18 10:47:26;;;;;;;8.43;6.45;;;29.40;80.00;;;;;;5113833;28;20328;-74
2023/06/18 10:50:03;;;;;;;9.73;6.32;;;29.50;80.10;;;;;;5115887;28;20066;-73
2023/06/18 10:52:39;;;;;;;12.00;6.45;;;29.50;78.80;;;;;;5114702;28;20048;-74
2023/06/18 10:55:24;;;;;;;9.98;6.53;;;29.70;79.30;;;;;;5114611;28;20131;-74
2023/06/18 10:58:04;;;;;;;9.10;6.35;;;29.70;76.80;;;;;;5117930;27;20047;-75
2023/06/18 11:00:40;;;;;;;9.23;6.28;;;29.80;78.90;;;;;;5117476;27;20069;-74
2023/06/18 11:03:11;;;;;;;12.82;6.32;;;30.00;77.00;;;;;;5135710;27;20039;-73
2023/06/18 11:05:44;;;;;;;12.05;6.28;;;30.00;75.30;;;;;;5136202;27;20088;-74
2023/06/18 11:08:13;;;;;;;10.13;6.38;;;29.90;76.00;;;;;;5135693;27;20126;-73
2023/06/18 11:10:47;;;;;;;12.75;5.78;;;30.00;74.90;;;;;;5135891;27;20134;-75
2023/06/18 11:13:13;;;;;;;10.02;6.28;;;30.10;72.90;;;;;;5117496;27;20050;-74
2023/06/18 11:15:57;;;;;;;9.20;6.15;;;30.20;73.70;;;;;;5115347;28;20116;-73
2023/06/18 11:18:26;;;;;;;10.40;6.43;;;30.40;73.80;;;;;;5133962;27;20406;-73
2023/06/18 11:20:56;;;;;;;9.80;5.97;;;30.50;73.60;;;;;;5134224;27;20044;-73
2023/06/18 11:23:26;;;;;;;8.85;6.03;;;30.60;71.90;;;;;;5117090;27;20071;-74
2023/06/18 11:25:52;;;;;;;12.48;6.47;;;30.60;69.80;;;;;;5117311;27;20047;-74
2023/06/18 11:28:18;;;;;;;;;;;30.50;69.70;;;;;;5117527;27;20058;-73
2023/06/18 11:30:56;;;;;;;10.55;6.22;;;30.50;69.50;;;;;;5083517;27;20283;-73
2023/06/18 11:33:23;;;;;;;9.50;6.38;;;30.60;68.30;;;;;;5116523;27;20050;-74
2023/06/18 11:35:50;;;;;;;10.40;5.80;;;30.40;67.10;;;;;;5100284;27;20049;-75
2023/06/18 11:38:17;;;;;;;8.73;6.07;;;30.40;66.40;;;;;;5099758;27;20050;-74
2023/06/18 11:40:50;;;;;;;10.93;6.35;;;30.20;65.50;;;;;;5117132;27;20514;-74
2023/06/18 11:43:16;;;;;;;10.02;6.82;;;30.30;66.70;;;;;;5117302;27;20403;-74
2023/06/18 11:45:52;;;;;;;10.35;6.47;;;30.40;66.80;;;;;;5117254;27;20039;-74
2023/06/18 11:48:22;;;;;;;8.80;6.53;;;30.40;67.10;;;;;;5116850;27;20410;-75
2023/06/18 11:50:53;;;;;;;10.00;5.82;;;30.60;67.00;;;;;;5116624;27;20075;-76
2023/06/18 11:53:20;;;;;;;9.80;6.47;;;30.70;66.10;;;;;;5099847;27;20054;-74
2023/06/18 11:55:46;;;;;;;8.70;5.85;;;30.70;66.70;;;;;;5116776;27;20039;-74
2023/06/18 11:58:12;;;;;;;;;;;30.80;65.00;;;;;;5134743;27;20575;-74
2023/06/18 12:00:38;;;;;;;10.75;6.35;;;30.90;67.20;;;;;;5099820;27;20276;-73
2023/06/18 12:03:04;;;;;;;16.33;6.05;;;31.00;66.40;;;;;;5099729;27;20047;-74
2023/06/18 12:05:37;;;;;;;10.25;6.70;;;30.40;63.20;;;;;;5115219;27;20238;-78
2023/06/18 12:08:13;;;;;;;8.77;6.53;;;30.70;64.30;;;;;;5116382;27;20047;-74
2023/06/18 12:10:43;;;;;;;11.65;6.70;;;30.70;64.10;;;;;;5116762;27;20054;-73
2023/06/18 12:13:18;;;;;;;11.80;6.63;;;30.30;63.40;;;;;;5099524;28;20047;-73
2023/06/18 12:16:25;;;;;;;9.90;6.70;;;30.30;62.80;;;;;;5078438;28;20044;-74
2023/06/18 12:18:58;;;;;;;10.95;6.57;;;30.00;62.10;;;;;;5014831;28;20195;-74
2023/06/18 12:21:24;;;;;;;10.43;6.57;;;30.20;63.80;;;;;;5067401;28;20134;-73
2023/06/18 12:23:51;;;;;;;10.35;7.05;;;30.20;64.80;;;;;;5095571;28;20119;-75
2023/06/18 12:26:17;;;;;;;11.82;7.55;;;30.40;64.30;;;;;;5082702;28;20100;-74
2023/06/18 12:28:44;;;;;;;11.23;8.02;;;30.50;63.50;;;;;;5076699;28;20055;-74
2023/06/18 12:31:10;;;;;;;10.63;7.65;;;30.40;63.80;;;;;;5111280;28;20051;-74
2023/06/18 12:33:41;;;;;;;;;;;29.90;63.70;;;;;;5094365;28;20176;-74
2023/06/18 12:36:07;;;;;;;11.77;7.80;;;29.90;64.50;;;;;;5112525;28;19970;-74
2023/06/18 12:38:43;;;;;;;;;;;29.70;64.90;;;;;;5112878;28;20077;-75